sensor_id;sensor_type;location;lat;lon;timestamp;pressure;altitude;pressure_sealevel;temperature;humidity
11108;BME280;5607;48.302;14.294;2023-01-28T00:00:06;98909.16;;;1.34;100.00
11108;BME280;5607;48.302;14.294;2023-01-28T00:02:53;98909.50;;;1.27;100.00
11108;BME280;5607;48.302;14.294;2023-01-28T00:05:40;98914.50;;;1.30;100.00
11108;BME280;5607;48.302;14.294;2023-01-28T00:08:27;98915.25;;;1.15;100.00
11108;BME280;5607;48.302;14.294;2023-01-28T00:11:13;98906.81;;;1.11;100.00
11108;BME280;5607;48.302;14.294;2023-01-28T00:14:00;98905.38;;;0.87;100.00
11108;BME280;5607;48.302;14.294;2023-01-28T00:16:47;98911.22;;;1.09;100.00
11108;BME280;5607;48.302;14.294;2023-01-28T00:19:33;98909.56;;;1.08;100.00
11108;BME280;5607;48.302;14.294;2023-01-28T00:22:20;98914.81;;;1.05;100.00
11108;BME280;5607;48.302;14.294;2023-01-28T00:25:07;98919.50;;;0.78;100.00
11108;BME280;5607;48.302;14.294;2023-01-28T00:27:53;98908.31;;;0.79;100.00
11108;BME280;5607;48.302;14.294;2023-01-28T00:30:40;98926.78;;;0.68;100.00
11108;BME280;5607;48.302;14.294;2023-01-28T00:33:27;98917.50;;;0.85;100.00
11108;BME280;5607;48.302;14.294;2023-01-28T00:36:16;98913.97;;;0.87;100.00
11108;BME280;5607;48.302;14.294;2023-01-28T00:39:03;98921.06;;;0.99;100.00
11108;BME280;5607;48.302;14.294;2023-01-28T00:41:50;98919.41;;;0.98;100.00
11108;BME280;5607;48.302;14.294;2023-01-28T00:44:37;98920.41;;;0.96;100.00
11108;BME280;5607;48.302;14.294;2023-01-28T00:47:24;98924.34;;;1.03;100.00
11108;BME280;5607;48.302;14.294;2023-01-28T00:50:10;98937.25;;;1.20;100.00
11108;BME280;5607;48.302;14.294;2023-01-28T00:52:57;98928.84;;;1.17;100.00
11108;BME280;5607;48.302;14.294;2023-01-28T00:55:43;98929.91;;;1.13;100.00
11108;BME280;5607;48.302;14.294;2023-01-28T00:58:31;98930.47;;;1.19;100.00
11108;BME280;5607;48.302;14.294;2023-01-28T01:01:20;98931.06;;;1.05;100.00
11108;BME280;5607;48.302;14.294;2023-01-28T01:04:07;98933.03;;;1.19;100.00
11108;BME280;5607;48.302;14.294;2023-01-28T01:06:53;98928.38;;;1.08;100.00
11108;BME280;5607;48.302;14.294;2023-01-28T01:09:40;98945.72;;;1.22;100.00
11108;BME280;5607;48.302;14.294;2023-01-28T01:12:27;98933.16;;;1.16;100.00
11108;BME280;5607;48.302;14.294;2023-01-28T01:15:14;98938.75;;;1.07;100.00
11108;BME280;5607;48.302;14.294;2023-01-28T01:18:01;98938.38;;;1.15;100.00
11108;BME280;5607;48.302;14.294;2023-01-28T01:20:48;98943.38;;;1.18;100.00
11108;BME280;5607;48.302;14.294;2023-01-28T01:23:35;98925.03;;;1.25;100.00
11108;BME280;5607;48.302;14.294;2023-01-28T01:26:22;98940.06;;;1.52;100.00
11108;BME280;5607;48.302;14.294;2023-01-28T01:29:08;98942.31;;;1.58;100.00
11108;BME280;5607;48.302;14.294;2023-01-28T01:31:55;98941.34;;;1.43;100.00
11108;BME280;5607;48.302;14.294;2023-01-28T01:34:42;98938.81;;;1.42;100.00
11108;BME280;5607;48.302;14.294;2023-01-28T01:37:28;98945.31;;;1.49;100.00
11108;BME280;5607;48.302;14.294;2023-01-28T01:40:15;98947.06;;;1.48;100.00
11108;BME280;5607;48.302;14.294;2023-01-28T01:43:13;98938.34;;;1.33;100.00
11108;BME280;5607;48.302;14.294;2023-01-28T01:46:00;98947.06;;;1.48;100.00
11108;BME280;5607;48.302;14.294;2023-01-28T01:48:47;98943.44;;;1.52;100.00
11108;BME280;5607;48.302;14.294;2023-01-28T01:51:35;98942.84;;;1.47;100.00
11108;BME280;5607;48.302;14.294;2023-01-28T01:54:23;98944.78;;;1.42;100.00
11108;BME280;5607;48.302;14.294;2023-01-28T01:57:15;98936.41;;;1.39;100.00
11108;BME280;5607;48.302;14.294;2023-01-28T02:00:05;98956.09;;;1.57;100.00
11108;BME280;5607;48.302;14.294;2023-01-28T02:02:52;98956.06;;;1.40;100.00
11108;BME280;5607;48.302;14.294;2023-01-28T02:05:39;98957.66;;;1.42;100.00
11108;BME280;5607;48.302;14.294;2023-01-28T02:08:26;98961.13;;;1.41;100.00
11108;BME280;5607;48.302;14.294;2023-01-28T02:11:13;98927.06;;;1.36;100.00
11108;BME280;5607;48.302;14.294;2023-01-28T02:14:03;98952.72;;;1.56;100.00
11108;BME280;5607;48.302;14.294;2023-01-28T02:16:50;98961.09;;;1.60;100.00
11108;BME280;5607;48.302;14.294;2023-01-28T02:19:49;98966.31;;;1.58;100.00
11108;BME280;5607;48.302;14.294;2023-01-28T02:28:51;98953.91;;;1.67;100.00
11108;BME280;5607;48.302;14.294;2023-01-28T02:31:51;98951.72;;;1.59;100.00
11108;BME280;5607;48.302;14.294;2023-01-28T02:34:45;98954.50;;;1.54;100.00
11108;BME280;5607;48.302;14.294;2023-01-28T02:37:38;98958.22;;;1.30;100.00
11108;BME280;5607;48.302;14.294;2023-01-28T02:40:29;98960.81;;;1.30;100.00
11108;BME280;5607;48.302;14.294;2023-01-28T02:43:16;98967.16;;;1.23;100.00
11108;BME280;5607;48.302;14.294;2023-01-28T02:46:16;98958.59;;;1.22;100.00
11108;BME280;5607;48.302;14.294;2023-01-28T02:49:30;98955.31;;;1.38;100.00
11108;BME280;5607;48.302;14.294;2023-01-28T02:58:38;98959.66;;;1.18;100.00
11108;BME280;5607;48.302;14.294;2023-01-28T03:01:36;98967.78;;;1.28;100.00
11108;BME280;5607;48.302;14.294;2023-01-28T03:04:31;98965.66;;;1.36;100.00
11108;BME280;5607;48.302;14.294;2023-01-28T03:07:21;98969.00;;;1.38;100.00
11108;BME280;5607;48.302;14.294;2023-01-28T03:10:12;98962.50;;;1.31;100.00
11108;BME280;5607;48.302;14.294;2023-01-28T03:13:01;98944.69;;;1.26;100.00
11108;BME280;5607;48.302;14.294;2023-01-28T03:16:06;98968.78;;;1.43;100.00
11108;BME280;5607;48.302;14.294;2023-01-28T03:19:12;98965.94;;;1.30;100.00
11108;BME280;5607;48.302;14.294;2023-01-28T03:22:17;98971.38;;;1.24;100.00
11108;BME280;5607;48.302;14.294;2023-01-28T03:25:25;98957.50;;;1.09;100.00
11108;BME280;5607;48.302;14.294;2023-01-28T03:28:32;98979.06;;;1.06;100.00
11108;BME280;5607;48.302;14.294;2023-01-28T03:31:41;98992.88;;;1.04;100.00
11108;BME280;5607;48.302;14.294;2023-01-28T03:34:47;99005.25;;;0.96;100.00
11108;BME280;5607;48.302;14.294;2023-01-28T03:37:52;98989.47;;;1.03;100.00
11108;BME280;5607;48.302;14.294;2023-01-28T03:40:51;98992.09;;;1.21;100.00
11108;BME280;5607;48.302;14.294;2023-01-28T03:43:38;99002.19;;;1.06;100.00
11108;BME280;5607;48.302;14.294;2023-01-28T03:46:24;99005.59;;;1.07;100.00
11108;BME280;5607;48.302;14.294;2023-01-28T03:49:11;98991.69;;;0.92;100.00
11108;BME280;5607;48.302;14.294;2023-01-28T03:51:58;99005.16;;;0.97;100.00
11108;BME280;5607;48.302;14.294;2023-01-28T03:54:45;99008.66;;;1.15;100.00
11108;BME280;5607;48.302;14.294;2023-01-28T03:57:35;99006.50;;;1.06;100.00
11108;BME280;5607;48.302;14.294;2023-01-28T04:00:21;99006.44;;;0.89;100.00
11108;BME280;5607;48.302;14.294;2023-01-28T04:03:09;98975.84;;;0.64;100.00
11108;BME280;5607;48.302;14.294;2023-01-28T04:06:07;99005.78;;;0.84;100.00
11108;BME280;5607;48.302;14.294;2023-01-28T04:08:54;99012.50;;;0.86;100.00
11108;BME280;5607;48.302;14.294;2023-01-28T04:11:44;99015.03;;;0.88;100.00
11108;BME280;5607;48.302;14.294;2023-01-28T04:14:31;99011.69;;;0.86;100.00
11108;BME280;5607;48.302;14.294;2023-01-28T04:17:18;99008.34;;;0.84;100.00
11108;BME280;5607;48.302;14.294;2023-01-28T04:20:05;99016.19;;;0.80;100.00
11108;BME280;5607;48.302;14.294;2023-01-28T04:22:51;99023.09;;;1.18;100.00
11108;BME280;5607;48.302;14.294;2023-01-28T04:25:38;99024.22;;;0.93;100.00
11108;BME280;5607;48.302;14.294;2023-01-28T04:28:25;99016.81;;;0.86;100.00
11108;BME280;5607;48.302;14.294;2023-01-28T04:31:11;98995.44;;;0.85;100.00
11108;BME280;5607;48.302;14.294;2023-01-28T04:33:58;99018.78;;;0.99;100.00
11108;BME280;5607;48.302;14.294;2023-01-28T04:36:45;99017.00;;;1.01;100.00
11108;BME280;5607;48.302;14.294;2023-01-28T04:39:32;99021.00;;;0.88;100.00
11108;BME280;5607;48.302;14.294;2023-01-28T04:42:18;99018.44;;;0.88;100.00
11108;BME280;5607;48.302;14.294;2023-01-28T04:45:05;99026.28;;;0.85;100.00
11108;BME280;5607;48.302;14.294;2023-01-28T04:47:52;99016.25;;;0.79;100.00
11108;BME280;5607;48.302;14.294;2023-01-28T04:50:39;99008.59;;;0.59;100.00
11108;BME280;5607;48.302;14.294;2023-01-28T04:53:26;99019.94;;;0.73;100.00
11108;BME280;5607;48.302;14.294;2023-01-28T04:56:12;99028.34;;;0.77;100.00
11108;BME280;5607;48.302;14.294;2023-01-28T04:58:59;99026.53;;;0.79;100.00
11108;BME280;5607;48.302;14.294;2023-01-28T05:01:46;99028.75;;;1.07;100.00
11108;BME280;5607;48.302;14.294;2023-01-28T05:04:32;99046.41;;;1.15;100.00
11108;BME280;5607;48.302;14.294;2023-01-28T05:07:19;99045.47;;;0.97;100.00
11108;BME280;5607;48.302;14.294;2023-01-28T05:10:06;99038.28;;;0.85;100.00
11108;BME280;5607;48.302;14.294;2023-01-28T05:12:53;99048.78;;;0.80;100.00
11108;BME280;5607;48.302;14.294;2023-01-28T05:15:39;99038.91;;;0.71;100.00
11108;BME280;5607;48.302;14.294;2023-01-28T05:18:26;99042.91;;;0.58;100.00
11108;BME280;5607;48.302;14.294;2023-01-28T05:21:13;99052.50;;;0.73;100.00
11108;BME280;5607;48.302;14.294;2023-01-28T05:23:59;99052.78;;;0.67;100.00
11108;BME280;5607;48.302;14.294;2023-01-28T05:26:46;99062.19;;;0.87;100.00
11108;BME280;5607;48.302;14.294;2023-01-28T05:29:32;99059.91;;;0.60;100.00
11108;BME280;5607;48.302;14.294;2023-01-28T05:32:19;99059.91;;;0.60;100.00
11108;BME280;5607;48.302;14.294;2023-01-28T05:35:06;99057.00;;;0.68;100.00
11108;BME280;5607;48.302;14.294;2023-01-28T05:37:52;99065.63;;;0.67;100.00
11108;BME280;5607;48.302;14.294;2023-01-28T05:40:39;99072.00;;;0.58;100.00
11108;BME280;5607;48.302;14.294;2023-01-28T05:43:26;99077.94;;;0.79;100.00
11108;BME280;5607;48.302;14.294;2023-01-28T05:46:14;99071.16;;;0.78;100.00
11108;BME280;5607;48.302;14.294;2023-01-28T05:49:00;99079.63;;;0.80;100.00
11108;BME280;5607;48.302;14.294;2023-01-28T05:51:47;99088.41;;;0.95;100.00
11108;BME280;5607;48.302;14.294;2023-01-28T05:54:33;99077.13;;;0.78;100.00
11108;BME280;5607;48.302;14.294;2023-01-28T05:57:20;99075.25;;;0.82;100.00
11108;BME280;5607;48.302;14.294;2023-01-28T06:00:07;99085.84;;;0.95;100.00
11108;BME280;5607;48.302;14.294;2023-01-28T06:02:54;99081.63;;;0.73;100.00
11108;BME280;5607;48.302;14.294;2023-01-28T06:05:40;99082.44;;;0.94;100.00
11108;BME280;5607;48.302;14.294;2023-01-28T06:08:27;99074.72;;;0.74;100.00
11108;BME280;5607;48.302;14.294;2023-01-28T06:11:13;99085.59;;;0.80;100.00
11108;BME280;5607;48.302;14.294;2023-01-28T06:14:00;99085.97;;;0.92;100.00
11108;BME280;5607;48.302;14.294;2023-01-28T06:16:46;99096.59;;;0.84;100.00
11108;BME280;5607;48.302;14.294;2023-01-28T06:19:33;99104.03;;;0.90;100.00
11108;BME280;5607;48.302;14.294;2023-01-28T06:22:20;99102.88;;;0.77;100.00
11108;BME280;5607;48.302;14.294;2023-01-28T06:25:07;99108.47;;;0.87;100.00
11108;BME280;5607;48.302;14.294;2023-01-28T06:27:54;99106.59;;;0.90;100.00
11108;BME280;5607;48.302;14.294;2023-01-28T06:30:40;99106.34;;;0.96;100.00
11108;BME280;5607;48.302;14.294;2023-01-28T06:33:27;99114.63;;;1.03;100.00
11108;BME280;5607;48.302;14.294;2023-01-28T06:36:14;99121.63;;;0.99;100.00
11108;BME280;5607;48.302;14.294;2023-01-28T06:39:01;99121.91;;;0.93;100.00
11108;BME280;5607;48.302;14.294;2023-01-28T06:41:48;99117.47;;;0.97;100.00
11108;BME280;5607;48.302;14.294;2023-01-28T06:44:35;99122.34;;;1.03;100.00
11108;BME280;5607;48.302;14.294;2023-01-28T06:47:22;99118.38;;;0.96;100.00
11108;BME280;5607;48.302;14.294;2023-01-28T06:50:09;99083.59;;;0.67;100.00
11108;BME280;5607;48.302;14.294;2023-01-28T06:52:56;99125.63;;;1.06;100.00
11108;BME280;5607;48.302;14.294;2023-01-28T06:55:42;99112.16;;;0.81;100.00
11108;BME280;5607;48.302;14.294;2023-01-28T06:58:29;99129.75;;;0.90;100.00
11108;BME280;5607;48.302;14.294;2023-01-28T07:01:15;99128.25;;;0.85;100.00
11108;BME280;5607;48.302;14.294;2023-01-28T07:04:03;99135.97;;;0.85;100.00
11108;BME280;5607;48.302;14.294;2023-01-28T07:06:49;99137.38;;;0.92;100.00
11108;BME280;5607;48.302;14.294;2023-01-28T07:09:36;99138.09;;;0.95;100.00
11108;BME280;5607;48.302;14.294;2023-01-28T07:12:23;99142.19;;;0.99;100.00
11108;BME280;5607;48.302;14.294;2023-01-28T07:15:10;99133.03;;;0.94;100.00
11108;BME280;5607;48.302;14.294;2023-01-28T07:17:57;99144.97;;;0.95;100.00
11108;BME280;5607;48.302;14.294;2023-01-28T07:20:43;99146.00;;;0.91;100.00
11108;BME280;5607;48.302;14.294;2023-01-28T07:23:30;99144.25;;;0.91;100.00
11108;BME280;5607;48.302;14.294;2023-01-28T07:26:16;99147.16;;;1.04;100.00
11108;BME280;5607;48.302;14.294;2023-01-28T07:29:05;99148.38;;;0.95;100.00
11108;BME280;5607;48.302;14.294;2023-01-28T07:31:51;99152.94;;;1.09;100.00
11108;BME280;5607;48.302;14.294;2023-01-28T07:34:38;99145.06;;;0.93;100.00
11108;BME280;5607;48.302;14.294;2023-01-28T07:37:27;99155.53;;;0.89;100.00
11108;BME280;5607;48.302;14.294;2023-01-28T07:40:13;99158.03;;;0.70;100.00
11108;BME280;5607;48.302;14.294;2023-01-28T07:43:00;99153.09;;;0.43;100.00
11108;BME280;5607;48.302;14.294;2023-01-28T07:45:46;99152.72;;;0.52;100.00
11108;BME280;5607;48.302;14.294;2023-01-28T07:48:33;99155.72;;;0.64;100.00
11108;BME280;5607;48.302;14.294;2023-01-28T07:51:21;99156.59;;;0.63;100.00
11108;BME280;5607;48.302;14.294;2023-01-28T07:54:08;99158.19;;;0.45;100.00
11108;BME280;5607;48.302;14.294;2023-01-28T07:56:54;99157.22;;;0.47;100.00
11108;BME280;5607;48.302;14.294;2023-01-28T07:59:41;99168.72;;;0.59;100.00
11108;BME280;5607;48.302;14.294;2023-01-28T08:02:27;99164.81;;;0.50;100.00
11108;BME280;5607;48.302;14.294;2023-01-28T08:05:19;99160.63;;;0.68;100.00
11108;BME280;5607;48.302;14.294;2023-01-28T08:08:08;99168.63;;;0.62;100.00
11108;BME280;5607;48.302;14.294;2023-01-28T08:10:55;99165.81;;;0.46;100.00
11108;BME280;5607;48.302;14.294;2023-01-28T08:13:41;99176.91;;;0.69;100.00
11108;BME280;5607;48.302;14.294;2023-01-28T08:16:28;99185.97;;;0.35;100.00
11108;BME280;5607;48.302;14.294;2023-01-28T08:19:15;99175.56;;;0.38;100.00
11108;BME280;5607;48.302;14.294;2023-01-28T08:22:03;99172.09;;;0.39;100.00
11108;BME280;5607;48.302;14.294;2023-01-28T08:24:50;99194.44;;;0.37;100.00
11108;BME280;5607;48.302;14.294;2023-01-28T08:27:36;99181.78;;;0.33;100.00
11108;BME280;5607;48.302;14.294;2023-01-28T08:30:23;99194.19;;;0.43;100.00
11108;BME280;5607;48.302;14.294;2023-01-28T08:33:11;99191.28;;;0.52;100.00
11108;BME280;5607;48.302;14.294;2023-01-28T08:36:02;99178.09;;;0.60;100.00
11108;BME280;5607;48.302;14.294;2023-01-28T08:38:52;99190.75;;;0.44;100.00
11108;BME280;5607;48.302;14.294;2023-01-28T08:41:41;99190.78;;;0.43;100.00
11108;BME280;5607;48.302;14.294;2023-01-28T08:44:28;99165.94;;;-0.01;100.00
11108;BME280;5607;48.302;14.294;2023-01-28T08:47:15;99190.91;;;0.18;100.00
11108;BME280;5607;48.302;14.294;2023-01-28T08:50:01;99169.13;;;0.28;100.00
11108;BME280;5607;48.302;14.294;2023-01-28T08:52:54;99192.25;;;0.50;100.00
11108;BME280;5607;48.302;14.294;2023-01-28T08:55:41;99196.75;;;0.65;100.00
11108;BME280;5607;48.302;14.294;2023-01-28T08:58:28;99194.66;;;0.75;100.00
11108;BME280;5607;48.302;14.294;2023-01-28T09:01:14;99196.84;;;0.84;100.00
11108;BME280;5607;48.302;14.294;2023-01-28T09:04:01;99199.03;;;0.93;100.00
11108;BME280;5607;48.302;14.294;2023-01-28T09:06:47;99204.13;;;0.95;100.00
11108;BME280;5607;48.302;14.294;2023-01-28T09:09:34;99203.97;;;0.98;100.00
11108;BME280;5607;48.302;14.294;2023-01-28T09:12:21;99209.94;;;0.78;100.00
11108;BME280;5607;48.302;14.294;2023-01-28T09:15:08;99207.94;;;0.64;100.00
11108;BME280;5607;48.302;14.294;2023-01-28T09:17:58;99209.03;;;0.79;100.00
11108;BME280;5607;48.302;14.294;2023-01-28T09:20:45;99209.34;;;0.71;100.00
11108;BME280;5607;48.302;14.294;2023-01-28T09:23:35;99212.66;;;0.53;100.00
11108;BME280;5607;48.302;14.294;2023-01-28T09:26:21;99209.78;;;0.61;100.00
11108;BME280;5607;48.302;14.294;2023-01-28T09:29:08;99210.00;;;0.76;100.00
11108;BME280;5607;48.302;14.294;2023-01-28T09:31:54;99209.66;;;1.06;100.00
11108;BME280;5607;48.302;14.294;2023-01-28T09:34:41;99204.78;;;0.58;100.00
11108;BME280;5607;48.302;14.294;2023-01-28T09:37:29;99214.50;;;0.49;100.00
11108;BME280;5607;48.302;14.294;2023-01-28T09:46:02;99206.63;;;0.32;100.00
11108;BME280;5607;48.302;14.294;2023-01-28T09:48:50;99215.22;;;0.53;100.00
11108;BME280;5607;48.302;14.294;2023-01-28T09:51:41;99212.59;;;0.54;100.00
11108;BME280;5607;48.302;14.294;2023-01-28T09:54:34;99218.34;;;0.39;100.00
11108;BME280;5607;48.302;14.294;2023-01-28T09:57:37;99214.63;;;0.46;100.00
11108;BME280;5607;48.302;14.294;2023-01-28T10:10:14;99215.47;;;0.47;100.00
11108;BME280;5607;48.302;14.294;2023-01-28T10:19:23;99207.28;;;0.37;100.00
11108;BME280;5607;48.302;14.294;2023-01-28T10:22:16;99200.66;;;0.74;100.00
11108;BME280;5607;48.302;14.294;2023-01-28T10:25:07;99206.41;;;0.38;100.00
11108;BME280;5607;48.302;14.294;2023-01-28T10:28:01;99198.31;;;0.47;100.00
11108;BME280;5607;48.302;14.294;2023-01-28T10:30:48;99206.50;;;0.13;100.00
11108;BME280;5607;48.302;14.294;2023-01-28T10:33:36;99207.75;;;0.03;100.00
11108;BME280;5607;48.302;14.294;2023-01-28T10:36:23;99217.69;;;-0.11;100.00
11108;BME280;5607;48.302;14.294;2023-01-28T10:39:13;99212.28;;;-0.04;100.00
11108;BME280;5607;48.302;14.294;2023-01-28T10:42:00;99200.66;;;0.10;100.00
11108;BME280;5607;48.302;14.294;2023-01-28T10:44:48;99202.31;;;0.11;100.00
11108;BME280;5607;48.302;14.294;2023-01-28T10:47:43;99208.25;;;0.35;100.00
11108;BME280;5607;48.302;14.294;2023-01-28T10:50:30;99203.63;;;0.65;100.00
11108;BME280;5607;48.302;14.294;2023-01-28T10:53:17;99206.75;;;0.51;100.00
11108;BME280;5607;48.302;14.294;2023-01-28T10:56:07;99204.47;;;0.43;100.00
11108;BME280;5607;48.302;14.294;2023-01-28T10:59:03;99198.50;;;0.65;100.00
11108;BME280;5607;48.302;14.294;2023-01-28T11:01:52;99201.06;;;0.65;100.00
11108;BME280;5607;48.302;14.294;2023-01-28T11:04:40;99202.72;;;0.66;100.00
11108;BME280;5607;48.302;14.294;2023-01-28T11:07:26;99201.03;;;0.44;100.00
11108;BME280;5607;48.302;14.294;2023-01-28T11:13:23;99194.91;;;0.69;100.00
11108;BME280;5607;48.302;14.294;2023-01-28T11:16:16;99203.28;;;0.52;100.00
11108;BME280;5607;48.302;14.294;2023-01-28T11:19:03;99198.34;;;0.25;100.00
11108;BME280;5607;48.302;14.294;2023-01-28T11:21:53;99194.56;;;0.56;100.00
11108;BME280;5607;48.302;14.294;2023-01-28T11:24:41;99195.66;;;0.71;100.00
11108;BME280;5607;48.302;14.294;2023-01-28T11:27:29;99197.41;;;0.70;100.00
11108;BME280;5607;48.302;14.294;2023-01-28T11:30:21;99193.94;;;0.49;100.00
11108;BME280;5607;48.302;14.294;2023-01-28T11:36:13;99193.22;;;0.68;100.00
11108;BME280;5607;48.302;14.294;2023-01-28T11:39:23;99195.16;;;0.83;100.00
11108;BME280;5607;48.302;14.294;2023-01-28T11:42:18;99174.50;;;0.44;100.00
11108;BME280;5607;48.302;14.294;2023-01-28T11:45:14;99193.34;;;0.65;100.00
11108;BME280;5607;48.302;14.294;2023-01-28T11:51:03;99194.91;;;1.10;100.00
11108;BME280;5607;48.302;14.294;2023-01-28T11:54:02;99169.22;;;0.89;100.00
11108;BME280;5607;48.302;14.294;2023-01-28T11:57:13;99190.22;;;1.19;100.00
11108;BME280;5607;48.302;14.294;2023-01-28T12:03:14;99189.66;;;1.13;100.00
11108;BME280;5607;48.302;14.294;2023-01-28T12:19:08;99194.44;;;1.41;100.00
11108;BME280;5607;48.302;14.294;2023-01-28T12:25:58;99199.97;;;1.52;100.00
11108;BME280;5607;48.302;14.294;2023-01-28T12:29:01;99198.22;;;1.52;100.00
11108;BME280;5607;48.302;14.294;2023-01-28T12:32:07;99172.38;;;1.35;100.00
11108;BME280;5607;48.302;14.294;2023-01-28T12:39:03;99196.75;;;1.47;100.00
11108;BME280;5607;48.302;14.294;2023-01-28T12:42:07;99193.56;;;1.21;100.00
11108;BME280;5607;48.302;14.294;2023-01-28T12:45:01;99186.94;;;1.16;100.00
11108;BME280;5607;48.302;14.294;2023-01-28T12:48:21;99187.31;;;1.27;100.00
11108;BME280;5607;48.302;14.294;2023-01-28T12:54:39;99193.75;;;0.96;100.00
11108;BME280;5607;48.302;14.294;2023-01-28T12:57:31;99195.00;;;0.88;100.00
11108;BME280;5607;48.302;14.294;2023-01-28T13:00:34;99202.13;;;1.01;100.00
11108;BME280;5607;48.302;14.294;2023-01-28T13:03:54;99199.44;;;1.25;100.00
11108;BME280;5607;48.302;14.294;2023-01-28T13:06:58;99170.75;;;0.93;100.00
11108;BME280;5607;48.302;14.294;2023-01-28T13:12:57;99199.72;;;1.38;100.00
11108;BME280;5607;48.302;14.294;2023-01-28T13:15:45;99201.16;;;1.64;100.00
11108;BME280;5607;48.302;14.294;2023-01-28T13:18:45;99196.44;;;1.34;100.00
11108;BME280;5607;48.302;14.294;2023-01-28T13:21:34;99207.78;;;1.49;100.00
11108;BME280;5607;48.302;14.294;2023-01-28T13:24:29;99195.41;;;1.38;100.00
11108;BME280;5607;48.302;14.294;2023-01-28T13:27:26;99208.25;;;1.58;100.00
11108;BME280;5607;48.302;14.294;2023-01-28T13:30:31;99203.47;;;1.30;100.00
11108;BME280;5607;48.302;14.294;2023-01-28T13:33:28;99210.88;;;1.57;100.00
11108;BME280;5607;48.302;14.294;2023-01-28T13:36:37;99211.00;;;1.15;100.00
11108;BME280;5607;48.302;14.294;2023-01-28T13:39:26;99219.06;;;1.46;100.00
11108;BME280;5607;48.302;14.294;2023-01-28T13:42:22;99212.09;;;1.09;100.00
11108;BME280;5607;48.302;14.294;2023-01-28T13:48:29;99174.97;;;0.74;100.00
11108;BME280;5607;48.302;14.294;2023-01-28T13:51:19;99212.97;;;1.28;100.00
11108;BME280;5607;48.302;14.294;2023-01-28T13:54:15;99225.44;;;0.97;100.00
11108;BME280;5607;48.302;14.294;2023-01-28T14:16:32;99234.41;;;0.87;100.00
11108;BME280;5607;48.302;14.294;2023-01-28T14:19:27;99240.19;;;0.93;100.00
11108;BME280;5607;48.302;14.294;2023-01-28T14:22:17;99235.72;;;0.97;100.00
11108;BME280;5607;48.302;14.294;2023-01-28T14:25:11;99236.31;;;1.03;100.00
11108;BME280;5607;48.302;14.294;2023-01-28T14:28:01;99244.25;;;1.19;100.00
11108;BME280;5607;48.302;14.294;2023-01-28T14:30:54;99237.72;;;1.11;100.00
11108;BME280;5607;48.302;14.294;2023-01-28T14:33:44;99214.03;;;1.24;100.00
11108;BME280;5607;48.302;14.294;2023-01-28T14:36:30;99237.59;;;1.34;100.00
11108;BME280;5607;48.302;14.294;2023-01-28T14:39:29;99243.41;;;1.39;100.00
11108;BME280;5607;48.302;14.294;2023-01-28T14:42:25;99258.13;;;1.35;100.00
11108;BME280;5607;48.302;14.294;2023-01-28T14:52:41;99257.53;;;0.88;100.00
11108;BME280;5607;48.302;14.294;2023-01-28T14:55:26;99245.44;;;0.68;100.00
11108;BME280;5607;48.302;14.294;2023-01-28T15:01:26;99265.50;;;1.02;100.00
11108;BME280;5607;48.302;14.294;2023-01-28T15:04:27;99264.59;;;1.03;100.00
11108;BME280;5607;48.302;14.294;2023-01-28T15:07:22;99265.69;;;0.98;100.00
11108;BME280;5607;48.302;14.294;2023-01-28T15:10:23;99268.31;;;0.96;100.00
11108;BME280;5607;48.302;14.294;2023-01-28T15:13:23;99275.44;;;0.90;100.00
11108;BME280;5607;48.302;14.294;2023-01-28T15:16:23;99278.56;;;0.76;100.00
11108;BME280;5607;48.302;14.294;2023-01-28T15:19:14;99271.38;;;0.84;100.00
11108;BME280;5607;48.302;14.294;2023-01-28T15:22:06;99276.59;;;0.83;100.00
11108;BME280;5607;48.302;14.294;2023-01-28T15:24:54;99273.69;;;0.70;100.00
11108;BME280;5607;48.302;14.294;2023-01-28T15:27:41;99279.66;;;0.70;100.00
11108;BME280;5607;48.302;14.294;2023-01-28T15:30:29;99282.75;;;0.78;100.00
11108;BME280;5607;48.302;14.294;2023-01-28T15:33:16;99294.16;;;0.71;100.00
11108;BME280;5607;48.302;14.294;2023-01-28T15:36:06;99297.19;;;1.03;100.00
11108;BME280;5607;48.302;14.294;2023-01-28T15:38:54;99303.06;;;0.85;100.00
11108;BME280;5607;48.302;14.294;2023-01-28T15:41:43;99294.31;;;1.11;100.00
11108;BME280;5607;48.302;14.294;2023-01-28T15:44:34;99296.41;;;1.43;100.00
11108;BME280;5607;48.302;14.294;2023-01-28T15:47:28;99303.50;;;1.16;100.00
11108;BME280;5607;48.302;14.294;2023-01-28T15:50:19;99294.97;;;1.36;100.00
11108;BME280;5607;48.302;14.294;2023-01-28T15:53:08;99303.97;;;1.26;100.00
11108;BME280;5607;48.302;14.294;2023-01-28T15:56:26;99304.44;;;1.35;100.00
11108;BME280;5607;48.302;14.294;2023-01-28T15:59:27;99301.91;;;1.34;100.00
11108;BME280;5607;48.302;14.294;2023-01-28T16:02:21;99310.78;;;1.27;100.00
11108;BME280;5607;48.302;14.294;2023-01-28T16:05:30;99315.28;;;1.42;100.00
11108;BME280;5607;48.302;14.294;2023-01-28T16:08:36;99318.19;;;1.34;100.00
11108;BME280;5607;48.302;14.294;2023-01-28T16:11:31;99319.41;;;1.26;100.00
11108;BME280;5607;48.302;14.294;2023-01-28T16:14:25;99321.66;;;1.54;100.00
11108;BME280;5607;48.302;14.294;2023-01-28T16:17:16;99323.94;;;1.61;100.00
11108;BME280;5607;48.302;14.294;2023-01-28T16:20:06;99317.22;;;1.78;100.00
11108;BME280;5607;48.302;14.294;2023-01-28T16:22:57;99324.84;;;1.81;100.00
11108;BME280;5607;48.302;14.294;2023-01-28T16:25:45;99330.81;;;1.81;100.00
11108;BME280;5607;48.302;14.294;2023-01-28T16:28:31;99331.66;;;1.82;100.00
11108;BME280;5607;48.302;14.294;2023-01-28T16:31:18;99326.72;;;1.96;100.00
11108;BME280;5607;48.302;14.294;2023-01-28T16:34:06;99329.53;;;1.71;100.00
11108;BME280;5607;48.302;14.294;2023-01-28T16:36:58;99337.25;;;1.71;100.00
11108;BME280;5607;48.302;14.294;2023-01-28T16:39:45;99336.94;;;1.58;100.00
11108;BME280;5607;48.302;14.294;2023-01-28T16:42:32;99342.59;;;1.67;100.00
11108;BME280;5607;48.302;14.294;2023-01-28T16:45:21;99342.41;;;1.71;100.00
11108;BME280;5607;48.302;14.294;2023-01-28T16:48:08;99349.25;;;1.91;100.00